sensor_id;sensor_type;location;lat;lon;timestamp;pressure;altitude;pressure_sealevel;temperature;humidity
73240;BME280;61452;40.054;4.110;2023-12-14T00:04:37;101389.91;;;17.48;100.00
73240;BME280;61452;40.054;4.110;2023-12-14T00:09:40;101345.88;;;17.46;100.00
73240;BME280;61452;40.054;4.110;2023-12-14T00:14:42;101340.34;;;17.49;100.00
73240;BME280;61452;40.054;4.110;2023-12-14T00:19:44;101332.41;;;17.49;100.00
73240;BME280;61452;40.054;4.110;2023-12-14T00:24:46;101348.63;;;17.44;100.00
73240;BME280;61452;40.054;4.110;2023-12-14T00:29:48;101355.72;;;17.44;100.00
73240;BME280;61452;40.054;4.110;2023-12-14T00:34:50;101355.50;;;17.47;100.00
73240;BME280;61452;40.054;4.110;2023-12-14T00:39:52;101343.22;;;17.46;100.00
73240;BME280;61452;40.054;4.110;2023-12-14T00:44:55;101345.75;;;17.47;100.00
73240;BME280;61452;40.054;4.110;2023-12-14T00:49:57;101349.06;;;17.51;100.00
73240;BME280;61452;40.054;4.110;2023-12-14T00:55:00;101359.78;;;17.49;100.00
73240;BME280;61452;40.054;4.110;2023-12-14T01:00:02;101344.50;;;17.53;100.00
73240;BME280;61452;40.054;4.110;2023-12-14T01:05:04;101345.66;;;17.49;100.00
73240;BME280;61452;40.054;4.110;2023-12-14T01:10:07;101355.72;;;17.44;100.00
73240;BME280;61452;40.054;4.110;2023-12-14T01:15:10;101370.69;;;17.45;100.00
73240;BME280;61452;40.054;4.110;2023-12-14T01:20:12;101367.63;;;17.51;100.00
73240;BME280;61452;40.054;4.110;2023-12-14T01:25:14;101366.78;;;17.50;100.00
73240;BME280;61452;40.054;4.110;2023-12-14T01:30:16;101367.09;;;17.46;100.00
73240;BME280;61452;40.054;4.110;2023-12-14T01:35:18;101364.75;;;17.41;100.00
73240;BME280;61452;40.054;4.110;2023-12-14T01:40:20;101384.06;;;17.43;100.00
73240;BME280;61452;40.054;4.110;2023-12-14T01:45:23;101391.91;;;17.45;100.00
73240;BME280;61452;40.054;4.110;2023-12-14T01:50:25;101384.06;;;17.43;100.00
73240;BME280;61452;40.054;4.110;2023-12-14T01:55:27;101409.72;;;17.43;100.00
73240;BME280;61452;40.054;4.110;2023-12-14T02:00:50;101410.66;;;17.42;100.00
73240;BME280;61452;40.054;4.110;2023-12-14T02:05:54;101407.50;;;17.49;100.00
73240;BME280;61452;40.054;4.110;2023-12-14T02:10:57;101402.22;;;17.49;100.00
73240;BME280;61452;40.054;4.110;2023-12-14T02:15:59;101401.25;;;17.50;100.00
73240;BME280;61452;40.054;4.110;2023-12-14T02:21:01;101415.47;;;17.49;100.00
73240;BME280;61452;40.054;4.110;2023-12-14T02:26:03;101411.13;;;17.48;100.00
73240;BME280;61452;40.054;4.110;2023-12-14T02:31:05;101427.53;;;17.40;100.00
73240;BME280;61452;40.054;4.110;2023-12-14T02:36:08;101419.69;;;17.39;100.00
73240;BME280;61452;40.054;4.110;2023-12-14T02:41:10;101419.56;;;17.40;100.00
73240;BME280;61452;40.054;4.110;2023-12-14T02:46:12;101393.72;;;17.44;100.00
73240;BME280;61452;40.054;4.110;2023-12-14T02:51:17;101415.25;;;17.39;100.00
73240;BME280;61452;40.054;4.110;2023-12-14T02:56:19;101424.25;;;17.37;100.00
73240;BME280;61452;40.054;4.110;2023-12-14T03:01:21;101415.34;;;17.38;100.00
73240;BME280;61452;40.054;4.110;2023-12-14T03:06:23;101409.81;;;17.41;100.00
73240;BME280;61452;40.054;4.110;2023-12-14T03:11:25;101408.88;;;17.42;100.00
73240;BME280;61452;40.054;4.110;2023-12-14T03:16:28;101417.50;;;17.46;100.00
73240;BME280;61452;40.054;4.110;2023-12-14T03:21:30;101423.75;;;17.45;100.00
73240;BME280;61452;40.054;4.110;2023-12-14T03:26:32;101433.94;;;17.51;100.00
73240;BME280;61452;40.054;4.110;2023-12-14T03:31:35;101437.22;;;17.54;100.00
73240;BME280;61452;40.054;4.110;2023-12-14T03:36:37;101440.28;;;17.48;100.00
73240;BME280;61452;40.054;4.110;2023-12-14T03:41:39;101438.81;;;17.44;100.00
73240;BME280;61452;40.054;4.110;2023-12-14T03:46:41;101433.41;;;17.46;100.00
73240;BME280;61452;40.054;4.110;2023-12-14T03:51:43;101431.47;;;17.48;100.00
73240;BME280;61452;40.054;4.110;2023-12-14T03:56:45;101426.16;;;17.48;100.00
73240;BME280;61452;40.054;4.110;2023-12-14T04:01:47;101443.16;;;17.45;100.00
73240;BME280;61452;40.054;4.110;2023-12-14T04:06:49;101459.72;;;17.49;100.00
73240;BME280;61452;40.054;4.110;2023-12-14T04:11:53;101465.88;;;17.49;100.00
73240;BME280;61452;40.054;4.110;2023-12-14T04:16:55;101463.13;;;17.51;100.00
73240;BME280;61452;40.054;4.110;2023-12-14T04:21:57;101456.88;;;17.52;100.00
73240;BME280;61452;40.054;4.110;2023-12-14T04:26:59;101453.53;;;17.48;100.00
73240;BME280;61452;40.054;4.110;2023-12-14T04:32:02;101447.72;;;17.43;100.00
73240;BME280;61452;40.054;4.110;2023-12-14T04:37:04;101452.47;;;17.38;100.00
73240;BME280;61452;40.054;4.110;2023-12-14T04:42:06;101478.78;;;17.41;100.00
73240;BME280;61452;40.054;4.110;2023-12-14T04:47:08;101494.28;;;17.47;100.00
73240;BME280;61452;40.054;4.110;2023-12-14T04:52:10;101515.81;;;17.43;100.00
73240;BME280;61452;40.054;4.110;2023-12-14T04:57:12;101506.16;;;17.42;100.00
73240;BME280;61452;40.054;4.110;2023-12-14T05:02:15;101490.34;;;17.40;100.00
73240;BME280;61452;40.054;4.110;2023-12-14T05:07:17;101498.19;;;17.42;100.00
73240;BME280;61452;40.054;4.110;2023-12-14T05:12:19;101519.13;;;17.46;100.00
73240;BME280;61452;40.054;4.110;2023-12-14T05:17:21;101526.97;;;17.48;100.00
73240;BME280;61452;40.054;4.110;2023-12-14T05:22:23;101518.16;;;17.47;100.00
73240;BME280;61452;40.054;4.110;2023-12-14T05:27:25;101519.00;;;17.48;100.00
73240;BME280;61452;40.054;4.110;2023-12-14T05:32:28;101523.44;;;17.47;100.00
73240;BME280;61452;40.054;4.110;2023-12-14T05:37:30;101520.94;;;17.46;100.00
73240;BME280;61452;40.054;4.110;2023-12-14T05:42:32;101543.81;;;17.47;100.00
73240;BME280;61452;40.054;4.110;2023-12-14T05:47:34;101555.50;;;17.44;100.00
73240;BME280;61452;40.054;4.110;2023-12-14T05:52:37;101547.16;;;17.50;100.00
73240;BME280;61452;40.054;4.110;2023-12-14T05:57:39;101558.69;;;17.49;100.00
73240;BME280;61452;40.054;4.110;2023-12-14T06:02:41;101566.03;;;17.46;100.00
73240;BME280;61452;40.054;4.110;2023-12-14T06:07:44;101569.78;;;17.42;100.00
73240;BME280;61452;40.054;4.110;2023-12-14T06:12:46;101587.41;;;17.43;100.00
73240;BME280;61452;40.054;4.110;2023-12-14T06:17:48;101626.03;;;17.47;100.00
73240;BME280;61452;40.054;4.110;2023-12-14T06:22:50;101636.66;;;17.47;100.00
73240;BME280;61452;40.054;4.110;2023-12-14T06:27:52;101643.97;;;17.43;100.00
73240;BME280;61452;40.054;4.110;2023-12-14T06:32:54;101676.66;;;17.44;100.00
73240;BME280;61452;40.054;4.110;2023-12-14T06:37:56;101660.91;;;17.40;100.00
73240;BME280;61452;40.054;4.110;2023-12-14T06:42:58;101757.84;;;17.46;100.00
73240;BME280;61452;40.054;4.110;2023-12-14T06:48:00;101696.94;;;17.45;100.00
73240;BME280;61452;40.054;4.110;2023-12-14T06:53:02;101696.53;;;17.36;100.00
73240;BME280;61452;40.054;4.110;2023-12-14T06:58:05;101689.34;;;17.38;100.00
73240;BME280;61452;40.054;4.110;2023-12-14T07:03:13;101688.50;;;17.38;100.00
73240;BME280;61452;40.054;4.110;2023-12-14T07:08:17;101707.34;;;17.33;100.00
73240;BME280;61452;40.054;4.110;2023-12-14T07:13:19;101710.88;;;17.34;100.00
73240;BME280;61452;40.054;4.110;2023-12-14T07:18:22;101734.72;;;17.34;100.00
73240;BME280;61452;40.054;4.110;2023-12-14T07:23:24;101716.44;;;17.29;100.00
73240;BME280;61452;40.054;4.110;2023-12-14T07:28:26;101720.78;;;17.30;100.00
73240;BME280;61452;40.054;4.110;2023-12-14T07:33:29;101716.53;;;17.28;100.00
73240;BME280;61452;40.054;4.110;2023-12-14T07:38:31;101722.03;;;17.25;100.00
73240;BME280;61452;40.054;4.110;2023-12-14T07:43:33;101735.75;;;17.31;100.00
73240;BME280;61452;40.054;4.110;2023-12-14T07:48:35;101746.66;;;17.27;100.00
73240;BME280;61452;40.054;4.110;2023-12-14T07:53:37;101754.88;;;17.22;100.00
73240;BME280;61452;40.054;4.110;2023-12-14T07:58:39;101769.75;;;17.25;100.00
73240;BME280;61452;40.054;4.110;2023-12-14T08:03:41;101766.06;;;17.27;100.00
73240;BME280;61452;40.054;4.110;2023-12-14T08:08:43;101788.72;;;17.33;100.00
73240;BME280;61452;40.054;4.110;2023-12-14T08:13:45;101790.66;;;17.29;100.00
73240;BME280;61452;40.054;4.110;2023-12-14T08:18:49;101805.00;;;17.27;100.00
73240;BME280;61452;40.054;4.110;2023-12-14T08:23:51;101812.16;;;17.25;100.00
73240;BME280;61452;40.054;4.110;2023-12-14T08:28:53;101816.25;;;17.30;100.00
73240;BME280;61452;40.054;4.110;2023-12-14T08:33:55;101827.63;;;17.32;100.00
73240;BME280;61452;40.054;4.110;2023-12-14T08:38:57;101831.78;;;17.36;100.00
73240;BME280;61452;40.054;4.110;2023-12-14T08:44:00;101834.38;;;17.38;100.00
73240;BME280;61452;40.054;4.110;2023-12-14T08:49:02;101839.19;;;17.31;100.00
73240;BME280;61452;40.054;4.110;2023-12-14T08:54:05;101855.38;;;17.27;100.00
73240;BME280;61452;40.054;4.110;2023-12-14T08:59:07;101843.06;;;17.26;100.00
73240;BME280;61452;40.054;4.110;2023-12-14T09:04:10;101833.97;;;17.30;100.00
73240;BME280;61452;40.054;4.110;2023-12-14T09:09:13;101847.13;;;17.31;100.00
73240;BME280;61452;40.054;4.110;2023-12-14T09:14:15;101856.88;;;17.31;100.00
73240;BME280;61452;40.054;4.110;2023-12-14T09:19:18;101880.09;;;17.27;100.00
73240;BME280;61452;40.054;4.110;2023-12-14T09:24:20;101892.38;;;17.28;100.00
73240;BME280;61452;40.054;4.110;2023-12-14T09:29:22;101896.88;;;17.28;100.00
73240;BME280;61452;40.054;4.110;2023-12-14T09:34:24;101887.06;;;17.28;100.00
73240;BME280;61452;40.054;4.110;2023-12-14T09:39:26;101913.78;;;17.25;100.00
73240;BME280;61452;40.054;4.110;2023-12-14T09:44:30;101912.84;;;17.26;100.00
73240;BME280;61452;40.054;4.110;2023-12-14T09:49:32;101924.47;;;17.24;100.00
73240;BME280;61452;40.054;4.110;2023-12-14T09:54:35;101914.72;;;17.24;100.00
73240;BME280;61452;40.054;4.110;2023-12-14T09:59:37;101921.47;;;17.30;100.00
73240;BME280;61452;40.054;4.110;2023-12-14T10:04:39;101915.22;;;17.31;100.00
73240;BME280;61452;40.054;4.110;2023-12-14T10:09:42;101921.38;;;17.31;100.00
73240;BME280;61452;40.054;4.110;2023-12-14T10:14:44;101921.66;;;17.27;100.00
73240;BME280;61452;40.054;4.110;2023-12-14T10:19:47;101936.72;;;17.26;100.00
73240;BME280;61452;40.054;4.110;2023-12-14T10:24:49;101945.53;;;17.27;100.00
73240;BME280;61452;40.054;4.110;2023-12-14T10:29:52;101952.34;;;17.31;100.00
73240;BME280;61452;40.054;4.110;2023-12-14T10:34:54;101972.72;;;17.30;100.00
73240;BME280;61452;40.054;4.110;2023-12-14T10:39:56;101955.28;;;17.26;100.00
73240;BME280;61452;40.054;4.110;2023-12-14T10:45:02;101978.38;;;17.24;100.00
73240;BME280;61452;40.054;4.110;2023-12-14T10:50:19;101980.16;;;17.24;100.00
73240;BME280;61452;40.054;4.110;2023-12-14T10:55:35;101960.59;;;17.26;100.00
73240;BME280;61452;40.054;4.110;2023-12-14T11:00:38;101982.72;;;17.25;100.00
73240;BME280;61452;40.054;4.110;2023-12-14T11:05:41;101963.31;;;17.25;100.00
73240;BME280;61452;40.054;4.110;2023-12-14T11:10:54;101985.47;;;17.24;100.00
73240;BME280;61452;40.054;4.110;2023-12-14T11:16:01;101998.72;;;17.24;100.00
73240;BME280;61452;40.054;4.110;2023-12-14T11:21:04;101986.59;;;17.20;100.00
73240;BME280;61452;40.054;4.110;2023-12-14T11:26:11;101990.97;;;17.21;100.00
73240;BME280;61452;40.054;4.110;2023-12-14T11:31:13;101985.38;;;17.25;100.00
73240;BME280;61452;40.054;4.110;2023-12-14T11:36:16;101995.22;;;17.23;100.00
73240;BME280;61452;40.054;4.110;2023-12-14T11:41:18;101992.47;;;17.25;100.00
73240;BME280;61452;40.054;4.110;2023-12-14T11:46:21;101987.09;;;17.26;100.00
73240;BME280;61452;40.054;4.110;2023-12-14T11:51:24;102005.81;;;17.23;100.00
73240;BME280;61452;40.054;4.110;2023-12-14T11:56:34;101974.00;;;17.23;100.00
73240;BME280;61452;40.054;4.110;2023-12-14T12:01:37;102008.31;;;17.26;100.00
73240;BME280;61452;40.054;4.110;2023-12-14T12:06:39;102005.66;;;17.26;100.00
73240;BME280;61452;40.054;4.110;2023-12-14T12:11:41;102003.94;;;17.25;100.00
73240;BME280;61452;40.054;4.110;2023-12-14T12:16:43;101999.44;;;17.27;100.00
73240;BME280;61452;40.054;4.110;2023-12-14T12:21:45;102022.59;;;17.24;100.00
73240;BME280;61452;40.054;4.110;2023-12-14T12:26:47;102001.47;;;17.22;100.00
73240;BME280;61452;40.054;4.110;2023-12-14T12:31:50;102016.34;;;17.25;100.00
73240;BME280;61452;40.054;4.110;2023-12-14T12:36:54;102017.28;;;17.24;100.00
73240;BME280;61452;40.054;4.110;2023-12-14T12:41:59;102064.09;;;17.25;100.00
73240;BME280;61452;40.054;4.110;2023-12-14T12:47:01;102072.03;;;17.25;100.00
73240;BME280;61452;40.054;4.110;2023-12-14T12:52:11;102070.25;;;17.25;100.00
73240;BME280;61452;40.054;4.110;2023-12-14T12:57:14;102086.06;;;17.27;100.00
73240;BME280;61452;40.054;4.110;2023-12-14T13:02:17;102091.47;;;17.25;100.00
73240;BME280;61452;40.054;4.110;2023-12-14T13:07:19;102090.69;;;17.23;100.00
73240;BME280;61452;40.054;4.110;2023-12-14T13:12:21;102089.16;;;17.19;100.00
73240;BME280;61452;40.054;4.110;2023-12-14T13:17:23;102092.72;;;17.18;100.00
73240;BME280;61452;40.054;4.110;2023-12-14T13:22:25;102091.00;;;17.17;100.00
73240;BME280;61452;40.054;4.110;2023-12-14T13:27:31;102073.16;;;17.21;100.00
73240;BME280;61452;40.054;4.110;2023-12-14T13:32:35;102075.69;;;17.22;100.00
73240;BME280;61452;40.054;4.110;2023-12-14T13:37:37;102096.09;;;17.22;100.00
73240;BME280;61452;40.054;4.110;2023-12-14T13:42:40;102090.94;;;17.19;100.00
73240;BME280;61452;40.054;4.110;2023-12-14T13:48:00;102085.47;;;17.22;100.00
73240;BME280;61452;40.054;4.110;2023-12-14T13:53:02;102097.09;;;17.19;100.00
73240;BME280;61452;40.054;4.110;2023-12-14T13:58:04;102101.41;;;17.22;100.00
73240;BME280;61452;40.054;4.110;2023-12-14T14:03:06;102128.66;;;17.24;100.00
73240;BME280;61452;40.054;4.110;2023-12-14T14:08:08;102102.22;;;17.22;100.00
73240;BME280;61452;40.054;4.110;2023-12-14T14:13:18;102099.50;;;17.24;100.00
73240;BME280;61452;40.054;4.110;2023-12-14T14:18:22;102106.44;;;17.26;100.00
73240;BME280;61452;40.054;4.110;2023-12-14T14:23:24;102113.78;;;17.21;100.00
73240;BME280;61452;40.054;4.110;2023-12-14T14:28:26;102136.53;;;17.25;100.00
73240;BME280;61452;40.054;4.110;2023-12-14T14:33:29;102135.69;;;17.25;100.00
73240;BME280;61452;40.054;4.110;2023-12-14T14:38:31;102156.91;;;17.25;100.00
73240;BME280;61452;40.054;4.110;2023-12-14T14:43:33;102165.53;;;17.28;100.00
73240;BME280;61452;40.054;4.110;2023-12-14T14:48:36;102160.41;;;17.25;100.00
73240;BME280;61452;40.054;4.110;2023-12-14T14:53:39;102159.63;;;17.23;100.00
73240;BME280;61452;40.054;4.110;2023-12-14T14:58:44;102169.47;;;17.21;100.00
73240;BME280;61452;40.054;4.110;2023-12-14T15:03:48;102186.13;;;17.23;100.00
73240;BME280;61452;40.054;4.110;2023-12-14T15:08:50;102203.09;;;17.21;100.00
73240;BME280;61452;40.054;4.110;2023-12-14T15:13:52;102187.00;;;17.24;100.00
73240;BME280;61452;40.054;4.110;2023-12-14T15:18:54;102173.91;;;17.21;100.00
73240;BME280;61452;40.054;4.110;2023-12-14T15:23:59;102209.25;;;17.21;100.00
73240;BME280;61452;40.054;4.110;2023-12-14T15:29:01;102204.81;;;17.22;100.00
73240;BME280;61452;40.054;4.110;2023-12-14T15:34:03;102214.56;;;17.21;100.00
73240;BME280;61452;40.054;4.110;2023-12-14T15:39:08;102250.81;;;17.21;100.00
73240;BME280;61452;40.054;4.110;2023-12-14T15:44:10;102241.81;;;17.23;100.00
73240;BME280;61452;40.054;4.110;2023-12-14T15:49:12;102255.19;;;17.22;100.00
73240;BME280;61452;40.054;4.110;2023-12-14T15:54:14;102260.78;;;17.16;100.00
73240;BME280;61452;40.054;4.110;2023-12-14T15:59:16;102286.22;;;17.20;100.00
73240;BME280;61452;40.054;4.110;2023-12-14T16:04:19;102272.19;;;17.18;100.00
73240;BME280;61452;40.054;4.110;2023-12-14T16:09:21;102272.88;;;17.21;100.00
73240;BME280;61452;40.054;4.110;2023-12-14T16:14:23;102276.28;;;17.23;100.00
73240;BME280;61452;40.054;4.110;2023-12-14T16:19:25;102326.78;;;17.22;100.00
73240;BME280;61452;40.054;4.110;2023-12-14T16:24:27;102311.63;;;17.24;100.00
73240;BME280;61452;40.054;4.110;2023-12-14T16:29:29;102341.84;;;17.21;100.00
73240;BME280;61452;40.054;4.110;2023-12-14T16:34:32;102334.81;;;17.20;100.00
73240;BME280;61452;40.054;4.110;2023-12-14T16:39:34;102341.84;;;17.21;100.00
73240;BME280;61452;40.054;4.110;2023-12-14T16:44:37;102341.72;;;17.23;100.00
73240;BME280;61452;40.054;4.110;2023-12-14T16:49:39;102336.53;;;17.21;100.00
73240;BME280;61452;40.054;4.110;2023-12-14T16:54:45;102332.09;;;17.22;100.00
73240;BME280;61452;40.054;4.110;2023-12-14T16:59:47;102350.78;;;17.19;100.00
73240;BME280;61452;40.054;4.110;2023-12-14T17:04:50;102342.59;;;17.23;100.00
73240;BME280;61452;40.054;4.110;2023-12-14T17:09:53;102356.88;;;17.21;100.00
73240;BME280;61452;40.054;4.110;2023-12-14T17:14:55;102369.44;;;17.17;100.00
73240;BME280;61452;40.054;4.110;2023-12-14T17:19:57;102361.66;;;17.14;100.00
73240;BME280;61452;40.054;4.110;2023-12-14T17:24:59;102383.78;;;17.13;100.00
73240;BME280;61452;40.054;4.110;2023-12-14T17:30:02;102391.56;;;17.16;100.00
73240;BME280;61452;40.054;4.110;2023-12-14T17:35:04;102386.25;;;17.16;100.00
73240;BME280;61452;40.054;4.110;2023-12-14T17:40:07;102400.38;;;17.17;100.00
73240;BME280;61452;40.054;4.110;2023-12-14T17:45:09;102414.56;;;17.16;100.00
73240;BME280;61452;40.054;4.110;2023-12-14T17:50:11;102421.53;;;17.18;100.00
73240;BME280;61452;40.054;4.110;2023-12-14T17:55:14;102452.34;;;17.21;100.00
73240;BME280;61452;40.054;4.110;2023-12-14T18:00:16;102462.09;;;17.20;100.00
73240;BME280;61452;40.054;4.110;2023-12-14T18:05:19;102476.28;;;17.19;100.00
73240;BME280;61452;40.054;4.110;2023-12-14T18:10:21;102470.06;;;17.20;100.00
73240;BME280;61452;40.054;4.110;2023-12-14T18:15:23;102484.16;;;17.21;100.00
73240;BME280;61452;40.054;4.110;2023-12-14T18:20:25;102482.50;;;17.18;100.00
73240;BME280;61452;40.054;4.110;2023-12-14T18:25:27;102493.19;;;17.17;100.00
73240;BME280;61452;40.054;4.110;2023-12-14T18:30:29;102507.25;;;17.19;100.00
73240;BME280;61452;40.054;4.110;2023-12-14T18:35:31;102489.63;;;17.18;100.00
73240;BME280;61452;40.054;4.110;2023-12-14T18:40:34;102505.53;;;17.18;100.00
73240;BME280;61452;40.054;4.110;2023-12-14T18:45:36;102515.34;;;17.16;100.00
73240;BME280;61452;40.054;4.110;2023-12-14T18:50:38;102520.72;;;17.14;100.00
73240;BME280;61452;40.054;4.110;2023-12-14T18:55:41;102492.63;;;17.10;100.00
73240;BME280;61452;40.054;4.110;2023-12-14T19:00:43;102524.38;;;17.12;100.00
73240;BME280;61452;40.054;4.110;2023-12-14T19:05:49;102513.84;;;17.10;100.00
73240;BME280;61452;40.054;4.110;2023-12-14T19:10:51;102558.22;;;17.07;100.00
73240;BME280;61452;40.054;4.110;2023-12-14T19:15:53;102516.78;;;17.04;100.00
73240;BME280;61452;40.054;4.110;2023-12-14T19:20:55;102520.22;;;17.06;100.00
73240;BME280;61452;40.054;4.110;2023-12-14T19:25:56;102556.25;;;17.10;100.00
73240;BME280;61452;40.054;4.110;2023-12-14T19:31:00;102525.53;;;17.06;100.00
73240;BME280;61452;40.054;4.110;2023-12-14T19:36:02;102544.09;;;17.06;100.00
73240;BME280;61452;40.054;4.110;2023-12-14T19:41:05;102555.50;;;17.08;100.00
73240;BME280;61452;40.054;4.110;2023-12-14T19:46:14;102529.97;;;17.06;100.00
73240;BME280;61452;40.054;4.110;2023-12-14T19:51:16;102541.38;;;17.08;100.00
73240;BME280;61452;40.054;4.110;2023-12-14T19:56:18;102549.28;;;17.09;100.00
73240;BME280;61452;40.054;4.110;2023-12-14T20:01:21;102539.50;;;17.10;100.00
73240;BME280;61452;40.054;4.110;2023-12-14T20:06:24;102550.31;;;17.05;100.00
73240;BME280;61452;40.054;4.110;2023-12-14T20:11:26;102571.53;;;17.05;100.00
73240;BME280;61452;40.054;4.110;2023-12-14T20:16:28;102575.03;;;17.06;100.00
73240;BME280;61452;40.054;4.110;2023-12-14T20:21:30;102567.97;;;17.06;100.00
73240;BME280;61452;40.054;4.110;2023-12-14T20:26:37;102560.00;;;17.06;100.00
73240;BME280;61452;40.054;4.110;2023-12-14T20:31:39;102569.53;;;17.10;100.00
73240;BME280;61452;40.054;4.110;2023-12-14T20:36:41;102572.34;;;17.07;100.00
73240;BME280;61452;40.054;4.110;2023-12-14T20:41:44;102590.97;;;17.06;100.00
73240;BME280;61452;40.054;4.110;2023-12-14T20:46:46;102582.94;;;17.07;100.00
73240;BME280;61452;40.054;4.110;2023-12-14T20:51:48;102589.03;;;17.09;100.00
73240;BME280;61452;40.054;4.110;2023-12-14T20:56:50;102587.44;;;17.05;100.00
73240;BME280;61452;40.054;4.110;2023-12-14T21:01:52;102581.16;;;17.08;100.00
73240;BME280;61452;40.054;4.110;2023-12-14T21:06:54;102609.44;;;17.07;100.00
73240;BME280;61452;40.054;4.110;2023-12-14T21:11:57;102595.34;;;17.07;100.00
73240;BME280;61452;40.054;4.110;2023-12-14T21:16:59;102613.03;;;17.06;100.00
73240;BME280;61452;40.054;4.110;2023-12-14T21:22:01;102605.88;;;17.08;100.00
73240;BME280;61452;40.054;4.110;2023-12-14T21:27:03;102605.06;;;17.06;100.00
73240;BME280;61452;40.054;4.110;2023-12-14T21:32:24;102628.13;;;17.04;100.00
73240;BME280;61452;40.054;4.110;2023-12-14T21:37:26;102639.75;;;17.02;100.00
73240;BME280;61452;40.054;4.110;2023-12-14T21:42:28;102640.53;;;17.04;100.00
73240;BME280;61452;40.054;4.110;2023-12-14T21:47:30;102636.94;;;17.05;100.00
73240;BME280;61452;40.054;4.110;2023-12-14T21:52:32;102663.47;;;17.05;100.00
73240;BME280;61452;40.054;4.110;2023-12-14T21:57:34;102668.00;;;17.03;100.00
73240;BME280;61452;40.054;4.110;2023-12-14T22:02:37;102697.28;;;16.99;100.00
73240;BME280;61452;40.054;4.110;2023-12-14T22:07:39;102661.91;;;17.01;100.00
73240;BME280;61452;40.054;4.110;2023-12-14T22:12:45;102678.66;;;17.01;100.00
73240;BME280;61452;40.054;4.110;2023-12-14T22:17:47;102684.88;;;17.00;100.00
73240;BME280;61452;40.054;4.110;2023-12-14T22:22:50;102694.63;;;16.99;100.00
73240;BME280;61452;40.054;4.110;2023-12-14T22:27:52;102699.81;;;17.03;100.00
73240;BME280;61452;40.054;4.110;2023-12-14T22:32:54;102683.22;;;16.97;100.00
73240;BME280;61452;40.054;4.110;2023-12-14T22:37:56;102669.03;;;16.98;100.00
73240;BME280;61452;40.054;4.110;2023-12-14T22:42:58;102682.31;;;16.98;100.00
73240;BME280;61452;40.054;4.110;2023-12-14T22:48:00;102696.41;;;16.99;100.00
73240;BME280;61452;40.054;4.110;2023-12-14T22:53:05;102700.78;;;17.00;100.00
73240;BME280;61452;40.054;4.110;2023-12-14T22:58:16;102692.03;;;16.98;100.00
73240;BME280;61452;40.054;4.110;2023-12-14T23:03:18;102692.03;;;16.98;100.00
73240;BME280;61452;40.054;4.110;2023-12-14T23:08:21;102700.00;;;16.98;100.00
73240;BME280;61452;40.054;4.110;2023-12-14T23:13:23;102734.56;;;16.96;100.00
73240;BME280;61452;40.054;4.110;2023-12-14T23:18:25;102694.84;;;16.95;100.00
73240;BME280;61452;40.054;4.110;2023-12-14T23:23:27;102714.25;;;16.95;100.00
73240;BME280;61452;40.054;4.110;2023-12-14T23:28:29;102713.25;;;16.98;100.00
73240;BME280;61452;40.054;4.110;2023-12-14T23:33:31;102726.44;;;16.99;100.00
73240;BME280;61452;40.054;4.110;2023-12-14T23:38:33;102736.19;;;16.99;100.00
73240;BME280;61452;40.054;4.110;2023-12-14T23:43:35;102731.91;;;16.96;100.00
73240;BME280;61452;40.054;4.110;2023-12-14T23:48:37;102729.16;;;16.98;100.00
73240;BME280;61452;40.054;4.110;2023-12-14T23:53:39;102737.97;;;16.98;100.00
73240;BME280;61452;40.054;4.110;2023-12-14T23:58:41;102742.41;;;16.98;100.00
